sensor_id;sensor_type;location;lat;lon;timestamp;P1;durP1;ratioP1;P2;durP2;ratioP2
47539;SDS011;33280;52.152;21.052;2022-08-21T00:00:17;7.30;;;4.97;;
47539;SDS011;33280;52.152;21.052;2022-08-21T00:02:52;7.30;;;4.80;;
47539;SDS011;33280;52.152;21.052;2022-08-21T00:05:22;8.57;;;4.90;;
47539;SDS011;33280;52.152;21.052;2022-08-21T00:07:50;9.23;;;4.80;;
47539;SDS011;33280;52.152;21.052;2022-08-21T00:10:18;8.00;;;4.80;;
47539;SDS011;33280;52.152;21.052;2022-08-21T00:12:46;12.37;;;5.43;;
47539;SDS011;33280;52.152;21.052;2022-08-21T00:15:15;10.57;;;5.30;;
47539;SDS011;33280;52.152;21.052;2022-08-21T00:17:55;7.87;;;5.20;;
47539;SDS011;33280;52.152;21.052;2022-08-21T00:20:23;7.03;;;4.77;;
47539;SDS011;33280;52.152;21.052;2022-08-21T00:22:54;7.30;;;4.83;;
47539;SDS011;33280;52.152;21.052;2022-08-21T00:25:22;6.90;;;5.43;;
47539;SDS011;33280;52.152;21.052;2022-08-21T00:27:51;7.90;;;5.07;;
47539;SDS011;33280;52.152;21.052;2022-08-21T00:30:20;6.47;;;5.03;;
47539;SDS011;33280;52.152;21.052;2022-08-21T00:32:49;8.87;;;5.00;;
47539;SDS011;33280;52.152;21.052;2022-08-21T00:35:18;7.60;;;5.10;;
47539;SDS011;33280;52.152;21.052;2022-08-21T00:37:47;9.83;;;5.63;;
47539;SDS011;33280;52.152;21.052;2022-08-21T00:40:16;9.37;;;4.77;;
47539;SDS011;33280;52.152;21.052;2022-08-21T00:42:46;7.17;;;4.90;;
47539;SDS011;33280;52.152;21.052;2022-08-21T00:45:25;5.57;;;4.50;;
47539;SDS011;33280;52.152;21.052;2022-08-21T00:47:54;7.57;;;5.40;;
47539;SDS011;33280;52.152;21.052;2022-08-21T00:50:22;9.63;;;5.00;;
47539;SDS011;33280;52.152;21.052;2022-08-21T00:52:52;8.23;;;5.27;;
47539;SDS011;33280;52.152;21.052;2022-08-21T00:55:25;9.27;;;4.83;;
47539;SDS011;33280;52.152;21.052;2022-08-21T00:57:57;9.00;;;5.07;;
47539;SDS011;33280;52.152;21.052;2022-08-21T01:00:29;9.23;;;5.03;;
47539;SDS011;33280;52.152;21.052;2022-08-21T01:02:58;7.97;;;5.20;;
47539;SDS011;33280;52.152;21.052;2022-08-21T01:05:32;9.27;;;5.80;;
47539;SDS011;33280;52.152;21.052;2022-08-21T01:07:59;8.00;;;4.93;;
47539;SDS011;33280;52.152;21.052;2022-08-21T01:10:27;8.50;;;5.10;;
47539;SDS011;33280;52.152;21.052;2022-08-21T01:12:55;11.50;;;5.37;;
47539;SDS011;33280;52.152;21.052;2022-08-21T01:15:24;9.17;;;5.10;;
47539;SDS011;33280;52.152;21.052;2022-08-21T01:17:55;6.83;;;5.17;;
47539;SDS011;33280;52.152;21.052;2022-08-21T01:20:22;6.67;;;5.00;;
47539;SDS011;33280;52.152;21.052;2022-08-21T01:22:58;6.63;;;4.50;;
47539;SDS011;33280;52.152;21.052;2022-08-21T01:25:27;7.03;;;4.87;;
47539;SDS011;33280;52.152;21.052;2022-08-21T01:27:54;8.33;;;5.00;;
47539;SDS011;33280;52.152;21.052;2022-08-21T01:30:24;11.10;;;5.40;;
47539;SDS011;33280;52.152;21.052;2022-08-21T01:32:53;8.07;;;5.00;;
47539;SDS011;33280;52.152;21.052;2022-08-21T01:35:21;8.17;;;5.17;;
47539;SDS011;33280;52.152;21.052;2022-08-21T01:37:48;7.37;;;4.80;;
47539;SDS011;33280;52.152;21.052;2022-08-21T01:40:16;8.27;;;5.20;;
47539;SDS011;33280;52.152;21.052;2022-08-21T01:42:44;7.50;;;5.27;;
47539;SDS011;33280;52.152;21.052;2022-08-21T01:45:12;8.43;;;4.97;;
47539;SDS011;33280;52.152;21.052;2022-08-21T01:47:40;6.30;;;5.00;;
47539;SDS011;33280;52.152;21.052;2022-08-21T01:50:09;9.50;;;5.00;;
47539;SDS011;33280;52.152;21.052;2022-08-21T01:52:42;13.53;;;5.73;;
47539;SDS011;33280;52.152;21.052;2022-08-21T01:55:09;11.50;;;5.20;;
47539;SDS011;33280;52.152;21.052;2022-08-21T01:57:38;6.80;;;4.83;;
47539;SDS011;33280;52.152;21.052;2022-08-21T02:00:06;11.83;;;5.80;;
47539;SDS011;33280;52.152;21.052;2022-08-21T02:02:39;10.27;;;5.20;;
47539;SDS011;33280;52.152;21.052;2022-08-21T02:05:07;7.23;;;5.23;;
47539;SDS011;33280;52.152;21.052;2022-08-21T02:07:37;7.03;;;5.00;;
47539;SDS011;33280;52.152;21.052;2022-08-21T02:10:13;9.67;;;5.23;;
47539;SDS011;33280;52.152;21.052;2022-08-21T02:12:42;9.20;;;5.07;;
47539;SDS011;33280;52.152;21.052;2022-08-21T02:15:09;9.93;;;5.37;;
47539;SDS011;33280;52.152;21.052;2022-08-21T02:17:37;8.53;;;5.43;;
47539;SDS011;33280;52.152;21.052;2022-08-21T02:20:17;7.70;;;5.20;;
47539;SDS011;33280;52.152;21.052;2022-08-21T02:23:05;6.50;;;5.07;;
47539;SDS011;33280;52.152;21.052;2022-08-21T02:25:34;10.33;;;5.63;;
47539;SDS011;33280;52.152;21.052;2022-08-21T02:28:03;6.87;;;5.30;;
47539;SDS011;33280;52.152;21.052;2022-08-21T02:30:41;8.43;;;5.43;;
47539;SDS011;33280;52.152;21.052;2022-08-21T02:33:11;12.07;;;5.73;;
47539;SDS011;33280;52.152;21.052;2022-08-21T02:35:41;8.13;;;5.50;;
47539;SDS011;33280;52.152;21.052;2022-08-21T02:38:11;7.13;;;5.13;;
47539;SDS011;33280;52.152;21.052;2022-08-21T02:40:41;9.23;;;5.57;;
47539;SDS011;33280;52.152;21.052;2022-08-21T02:43:14;7.13;;;5.20;;
47539;SDS011;33280;52.152;21.052;2022-08-21T02:45:42;7.53;;;5.40;;
47539;SDS011;33280;52.152;21.052;2022-08-21T02:48:11;6.43;;;5.27;;
47539;SDS011;33280;52.152;21.052;2022-08-21T02:50:42;7.57;;;5.60;;
47539;SDS011;33280;52.152;21.052;2022-08-21T02:53:20;8.27;;;5.60;;
47539;SDS011;33280;52.152;21.052;2022-08-21T02:55:48;7.90;;;5.27;;
47539;SDS011;33280;52.152;21.052;2022-08-21T02:58:17;8.53;;;5.40;;
47539;SDS011;33280;52.152;21.052;2022-08-21T03:00:50;6.57;;;5.53;;
47539;SDS011;33280;52.152;21.052;2022-08-21T03:03:17;7.23;;;5.60;;
47539;SDS011;33280;52.152;21.052;2022-08-21T03:05:48;7.07;;;5.50;;
47539;SDS011;33280;52.152;21.052;2022-08-21T03:08:15;6.87;;;5.40;;
47539;SDS011;33280;52.152;21.052;2022-08-21T03:10:44;8.53;;;5.53;;
47539;SDS011;33280;52.152;21.052;2022-08-21T03:13:14;8.20;;;5.57;;
47539;SDS011;33280;52.152;21.052;2022-08-21T03:15:43;7.80;;;5.27;;
47539;SDS011;33280;52.152;21.052;2022-08-21T03:18:10;7.67;;;5.53;;
47539;SDS011;33280;52.152;21.052;2022-08-21T03:20:39;8.83;;;5.33;;
47539;SDS011;33280;52.152;21.052;2022-08-21T03:23:07;9.23;;;5.63;;
47539;SDS011;33280;52.152;21.052;2022-08-21T03:25:49;9.00;;;5.47;;
47539;SDS011;33280;52.152;21.052;2022-08-21T03:28:21;12.23;;;5.57;;
47539;SDS011;33280;52.152;21.052;2022-08-21T03:30:49;10.53;;;5.40;;
47539;SDS011;33280;52.152;21.052;2022-08-21T03:33:17;8.80;;;5.20;;
47539;SDS011;33280;52.152;21.052;2022-08-21T03:36:05;6.97;;;5.70;;
47539;SDS011;33280;52.152;21.052;2022-08-21T03:38:33;10.67;;;5.70;;
47539;SDS011;33280;52.152;21.052;2022-08-21T03:41:01;8.73;;;5.83;;
47539;SDS011;33280;52.152;21.052;2022-08-21T03:43:30;8.63;;;5.50;;
47539;SDS011;33280;52.152;21.052;2022-08-21T03:45:58;12.80;;;5.97;;
47539;SDS011;33280;52.152;21.052;2022-08-21T03:48:28;8.77;;;5.80;;
47539;SDS011;33280;52.152;21.052;2022-08-21T03:50:55;7.70;;;5.50;;
47539;SDS011;33280;52.152;21.052;2022-08-21T03:53:22;16.47;;;7.40;;
47539;SDS011;33280;52.152;21.052;2022-08-21T03:55:51;12.07;;;6.23;;
47539;SDS011;33280;52.152;21.052;2022-08-21T03:58:20;9.30;;;5.50;;
47539;SDS011;33280;52.152;21.052;2022-08-21T04:00:56;8.57;;;5.80;;
47539;SDS011;33280;52.152;21.052;2022-08-21T04:03:41;7.80;;;5.67;;
47539;SDS011;33280;52.152;21.052;2022-08-21T04:06:09;9.43;;;5.60;;
47539;SDS011;33280;52.152;21.052;2022-08-21T04:08:39;10.57;;;5.60;;
47539;SDS011;33280;52.152;21.052;2022-08-21T04:11:09;10.77;;;5.73;;
47539;SDS011;33280;52.152;21.052;2022-08-21T04:13:54;7.80;;;5.67;;
47539;SDS011;33280;52.152;21.052;2022-08-21T04:16:21;10.67;;;5.80;;
47539;SDS011;33280;52.152;21.052;2022-08-21T04:18:57;9.07;;;5.40;;
47539;SDS011;33280;52.152;21.052;2022-08-21T04:21:24;18.57;;;6.60;;
47539;SDS011;33280;52.152;21.052;2022-08-21T04:24:02;8.73;;;5.80;;
47539;SDS011;33280;52.152;21.052;2022-08-21T04:26:30;9.97;;;5.97;;
47539;SDS011;33280;52.152;21.052;2022-08-21T04:29:09;8.50;;;5.33;;
47539;SDS011;33280;52.152;21.052;2022-08-21T04:31:36;6.77;;;5.50;;
47539;SDS011;33280;52.152;21.052;2022-08-21T04:34:04;9.10;;;5.50;;
47539;SDS011;33280;52.152;21.052;2022-08-21T04:36:32;8.47;;;5.40;;
47539;SDS011;33280;52.152;21.052;2022-08-21T04:39:02;8.57;;;5.50;;
47539;SDS011;33280;52.152;21.052;2022-08-21T04:41:30;6.80;;;5.07;;
47539;SDS011;33280;52.152;21.052;2022-08-21T04:44:00;8.93;;;5.23;;
47539;SDS011;33280;52.152;21.052;2022-08-21T04:46:27;8.77;;;4.97;;
47539;SDS011;33280;52.152;21.052;2022-08-21T04:48:57;12.27;;;5.63;;
47539;SDS011;33280;52.152;21.052;2022-08-21T04:51:29;9.23;;;5.40;;
47539;SDS011;33280;52.152;21.052;2022-08-21T04:56:35;6.43;;;5.37;;
47539;SDS011;33280;52.152;21.052;2022-08-21T04:59:06;8.00;;;5.10;;
47539;SDS011;33280;52.152;21.052;2022-08-21T05:01:54;9.50;;;5.17;;
47539;SDS011;33280;52.152;21.052;2022-08-21T05:04:24;8.80;;;5.33;;
47539;SDS011;33280;52.152;21.052;2022-08-21T05:07:03;8.40;;;5.30;;
47539;SDS011;33280;52.152;21.052;2022-08-21T05:09:33;8.03;;;5.13;;
47539;SDS011;33280;52.152;21.052;2022-08-21T05:12:04;7.40;;;5.47;;
47539;SDS011;33280;52.152;21.052;2022-08-21T05:14:31;14.03;;;5.60;;
47539;SDS011;33280;52.152;21.052;2022-08-21T05:19:57;6.57;;;5.50;;
47539;SDS011;33280;52.152;21.052;2022-08-21T05:22:24;10.03;;;5.43;;
47539;SDS011;33280;52.152;21.052;2022-08-21T05:24:51;8.47;;;5.40;;
47539;SDS011;33280;52.152;21.052;2022-08-21T05:27:19;8.87;;;5.70;;
47539;SDS011;33280;52.152;21.052;2022-08-21T05:29:48;7.30;;;5.03;;
47539;SDS011;33280;52.152;21.052;2022-08-21T05:32:18;7.73;;;5.40;;
47539;SDS011;33280;52.152;21.052;2022-08-21T05:34:45;8.40;;;5.47;;
47539;SDS011;33280;52.152;21.052;2022-08-21T05:37:17;6.47;;;4.83;;
47539;SDS011;33280;52.152;21.052;2022-08-21T05:39:44;7.43;;;5.10;;
47539;SDS011;33280;52.152;21.052;2022-08-21T05:42:49;12.87;;;5.70;;
47539;SDS011;33280;52.152;21.052;2022-08-21T05:45:45;9.53;;;5.30;;
47539;SDS011;33280;52.152;21.052;2022-08-21T05:48:22;8.43;;;5.30;;
47539;SDS011;33280;52.152;21.052;2022-08-21T05:50:50;6.93;;;5.10;;
47539;SDS011;33280;52.152;21.052;2022-08-21T05:53:18;7.73;;;4.87;;
47539;SDS011;33280;52.152;21.052;2022-08-21T05:55:46;5.73;;;4.93;;
47539;SDS011;33280;52.152;21.052;2022-08-21T05:58:15;6.33;;;5.00;;
47539;SDS011;33280;52.152;21.052;2022-08-21T06:03:44;12.80;;;5.50;;
47539;SDS011;33280;52.152;21.052;2022-08-21T06:06:17;13.80;;;6.00;;
47539;SDS011;33280;52.152;21.052;2022-08-21T06:08:44;7.10;;;4.90;;
47539;SDS011;33280;52.152;21.052;2022-08-21T06:11:11;6.97;;;5.00;;
47539;SDS011;33280;52.152;21.052;2022-08-21T06:13:38;6.87;;;5.60;;
47539;SDS011;33280;52.152;21.052;2022-08-21T06:16:09;7.50;;;5.43;;
47539;SDS011;33280;52.152;21.052;2022-08-21T06:18:42;13.87;;;5.77;;
47539;SDS011;33280;52.152;21.052;2022-08-21T06:21:10;8.37;;;5.57;;
47539;SDS011;33280;52.152;21.052;2022-08-21T06:23:39;7.87;;;5.07;;
47539;SDS011;33280;52.152;21.052;2022-08-21T06:26:07;9.57;;;5.40;;
47539;SDS011;33280;52.152;21.052;2022-08-21T06:28:36;9.40;;;5.30;;
47539;SDS011;33280;52.152;21.052;2022-08-21T06:31:10;7.87;;;5.40;;
47539;SDS011;33280;52.152;21.052;2022-08-21T06:33:58;6.80;;;5.50;;
47539;SDS011;33280;52.152;21.052;2022-08-21T06:36:25;7.07;;;5.60;;
47539;SDS011;33280;52.152;21.052;2022-08-21T06:38:52;7.57;;;5.27;;
47539;SDS011;33280;52.152;21.052;2022-08-21T06:41:22;9.37;;;5.37;;
47539;SDS011;33280;52.152;21.052;2022-08-21T06:43:52;7.60;;;5.33;;
47539;SDS011;33280;52.152;21.052;2022-08-21T06:46:24;9.83;;;5.50;;
47539;SDS011;33280;52.152;21.052;2022-08-21T06:48:53;7.63;;;5.17;;
47539;SDS011;33280;52.152;21.052;2022-08-21T06:51:20;9.40;;;5.43;;
47539;SDS011;33280;52.152;21.052;2022-08-21T06:53:50;9.35;;;5.55;;
47539;SDS011;33280;52.152;21.052;2022-08-21T06:56:18;7.63;;;5.40;;
47539;SDS011;33280;52.152;21.052;2022-08-21T06:58:45;14.73;;;6.97;;
47539;SDS011;33280;52.152;21.052;2022-08-21T07:01:13;20.80;;;8.00;;
47539;SDS011;33280;52.152;21.052;2022-08-21T07:03:41;9.03;;;5.63;;
47539;SDS011;33280;52.152;21.052;2022-08-21T07:06:09;9.27;;;5.78;;
47539;SDS011;33280;52.152;21.052;2022-08-21T07:08:37;8.17;;;5.63;;
47539;SDS011;33280;52.152;21.052;2022-08-21T07:11:07;6.93;;;5.43;;
47539;SDS011;33280;52.152;21.052;2022-08-21T07:13:48;10.57;;;5.80;;
47539;SDS011;33280;52.152;21.052;2022-08-21T07:16:18;6.70;;;5.67;;
47539;SDS011;33280;52.152;21.052;2022-08-21T07:18:51;8.03;;;5.97;;
47539;SDS011;33280;52.152;21.052;2022-08-21T07:21:18;8.20;;;6.00;;
47539;SDS011;33280;52.152;21.052;2022-08-21T07:23:54;11.97;;;6.63;;
47539;SDS011;33280;52.152;21.052;2022-08-21T07:26:42;9.43;;;5.90;;
47539;SDS011;33280;52.152;21.052;2022-08-21T07:29:31;9.57;;;6.00;;
47539;SDS011;33280;52.152;21.052;2022-08-21T07:32:21;10.23;;;6.03;;
47539;SDS011;33280;52.152;21.052;2022-08-21T07:34:48;8.03;;;5.40;;
47539;SDS011;33280;52.152;21.052;2022-08-21T07:37:18;9.25;;;6.43;;
47539;SDS011;33280;52.152;21.052;2022-08-21T07:43:12;7.35;;;5.70;;
47539;SDS011;33280;52.152;21.052;2022-08-21T07:45:39;8.80;;;6.10;;
47539;SDS011;33280;52.152;21.052;2022-08-21T07:48:06;7.43;;;5.63;;
47539;SDS011;33280;52.152;21.052;2022-08-21T07:50:51;8.33;;;6.20;;
47539;SDS011;33280;52.152;21.052;2022-08-21T07:58:49;9.17;;;5.90;;
47539;SDS011;33280;52.152;21.052;2022-08-21T08:01:16;9.88;;;6.20;;
47539;SDS011;33280;52.152;21.052;2022-08-21T08:06:24;8.80;;;6.15;;
47539;SDS011;33280;52.152;21.052;2022-08-21T08:08:55;7.90;;;5.35;;
47539;SDS011;33280;52.152;21.052;2022-08-21T08:14:00;7.63;;;5.50;;
47539;SDS011;33280;52.152;21.052;2022-08-21T08:20:37;7.50;;;5.47;;
47539;SDS011;33280;52.152;21.052;2022-08-21T08:23:30;19.63;;;6.78;;
47539;SDS011;33280;52.152;21.052;2022-08-21T08:25:58;6.53;;;5.32;;
47539;SDS011;33280;52.152;21.052;2022-08-21T08:28:26;9.35;;;5.70;;
47539;SDS011;33280;52.152;21.052;2022-08-21T08:30:53;9.38;;;5.32;;
47539;SDS011;33280;52.152;21.052;2022-08-21T08:33:21;8.85;;;5.50;;
47539;SDS011;33280;52.152;21.052;2022-08-21T08:39:08;8.55;;;5.20;;
47539;SDS011;33280;52.152;21.052;2022-08-21T08:41:36;5.47;;;4.72;;
47539;SDS011;33280;52.152;21.052;2022-08-21T08:44:08;8.52;;;5.00;;
47539;SDS011;33280;52.152;21.052;2022-08-21T08:46:44;9.00;;;5.25;;
47539;SDS011;33280;52.152;21.052;2022-08-21T08:49:20;7.60;;;4.82;;
47539;SDS011;33280;52.152;21.052;2022-08-21T08:54:42;6.80;;;4.57;;
47539;SDS011;33280;52.152;21.052;2022-08-21T08:57:16;11.63;;;5.38;;
47539;SDS011;33280;52.152;21.052;2022-08-21T08:59:50;7.32;;;4.38;;
47539;SDS011;33280;52.152;21.052;2022-08-21T09:02:19;5.80;;;4.35;;
47539;SDS011;33280;52.152;21.052;2022-08-21T09:04:47;5.78;;;4.50;;
47539;SDS011;33280;52.152;21.052;2022-08-21T09:07:32;5.93;;;4.55;;
47539;SDS011;33280;52.152;21.052;2022-08-21T09:27:12;8.95;;;5.15;;
47539;SDS011;33280;52.152;21.052;2022-08-21T09:29:42;6.10;;;4.38;;
47539;SDS011;33280;52.152;21.052;2022-08-21T09:32:16;6.15;;;4.43;;
47539;SDS011;33280;52.152;21.052;2022-08-21T09:34:55;4.72;;;4.15;;
47539;SDS011;33280;52.152;21.052;2022-08-21T09:37:56;6.30;;;4.40;;
47539;SDS011;33280;52.152;21.052;2022-08-21T09:45:48;6.38;;;4.00;;
47539;SDS011;33280;52.152;21.052;2022-08-21T09:48:27;5.47;;;3.92;;
47539;SDS011;33280;52.152;21.052;2022-08-21T09:51:07;4.88;;;3.58;;
47539;SDS011;33280;52.152;21.052;2022-08-21T09:53:38;7.18;;;4.30;;
47539;SDS011;33280;52.152;21.052;2022-08-21T09:56:17;6.63;;;4.00;;
47539;SDS011;33280;52.152;21.052;2022-08-21T09:59:13;5.60;;;3.83;;
47539;SDS011;33280;52.152;21.052;2022-08-21T10:01:50;5.65;;;3.60;;
47539;SDS011;33280;52.152;21.052;2022-08-21T10:04:22;7.75;;;4.18;;
47539;SDS011;33280;52.152;21.052;2022-08-21T10:07:08;6.60;;;3.78;;
47539;SDS011;33280;52.152;21.052;2022-08-21T10:09:41;6.15;;;3.67;;
47539;SDS011;33280;52.152;21.052;2022-08-21T10:12:13;6.25;;;3.90;;
47539;SDS011;33280;52.152;21.052;2022-08-21T10:14:58;6.97;;;3.92;;
47539;SDS011;33280;52.152;21.052;2022-08-21T10:20:14;5.18;;;3.65;;
47539;SDS011;33280;52.152;21.052;2022-08-21T10:28:39;15.80;;;5.40;;
47539;SDS011;33280;52.152;21.052;2022-08-21T10:53:01;3.95;;;3.22;;
47539;SDS011;33280;52.152;21.052;2022-08-21T10:55:43;7.75;;;3.55;;
47539;SDS011;33280;52.152;21.052;2022-08-21T10:58:36;13.40;;;3.92;;
47539;SDS011;33280;52.152;21.052;2022-08-21T11:03:48;6.15;;;3.85;;
47539;SDS011;33280;52.152;21.052;2022-08-21T11:06:21;4.55;;;3.20;;
47539;SDS011;33280;52.152;21.052;2022-08-21T11:08:55;4.20;;;2.85;;
47539;SDS011;33280;52.152;21.052;2022-08-21T11:14:09;6.38;;;3.08;;
47539;SDS011;33280;52.152;21.052;2022-08-21T11:16:41;4.40;;;3.38;;
47539;SDS011;33280;52.152;21.052;2022-08-21T11:22:13;17.17;;;5.05;;
47539;SDS011;33280;52.152;21.052;2022-08-21T11:24:47;5.72;;;3.33;;
47539;SDS011;33280;52.152;21.052;2022-08-21T11:30:10;4.05;;;2.90;;
47539;SDS011;33280;52.152;21.052;2022-08-21T11:38:35;7.13;;;2.85;;
47539;SDS011;33280;52.152;21.052;2022-08-21T11:41:30;5.00;;;2.95;;
47539;SDS011;33280;52.152;21.052;2022-08-21T11:44:09;3.53;;;2.78;;
47539;SDS011;33280;52.152;21.052;2022-08-21T11:46:55;5.40;;;2.78;;
47539;SDS011;33280;52.152;21.052;2022-08-21T11:49:32;5.15;;;3.08;;
47539;SDS011;33280;52.152;21.052;2022-08-21T12:00:25;4.05;;;3.00;;
47539;SDS011;33280;52.152;21.052;2022-08-21T12:03:34;5.57;;;3.60;;
47539;SDS011;33280;52.152;21.052;2022-08-21T12:06:07;7.75;;;3.40;;
47539;SDS011;33280;52.152;21.052;2022-08-21T12:16:34;4.88;;;3.10;;
47539;SDS011;33280;52.152;21.052;2022-08-21T12:19:07;4.60;;;2.90;;
47539;SDS011;33280;52.152;21.052;2022-08-21T12:25:07;4.53;;;3.00;;
47539;SDS011;33280;52.152;21.052;2022-08-21T12:30:23;3.65;;;3.00;;
47539;SDS011;33280;52.152;21.052;2022-08-21T12:32:57;5.82;;;3.22;;
47539;SDS011;33280;52.152;21.052;2022-08-21T12:35:35;10.18;;;3.97;;
47539;SDS011;33280;52.152;21.052;2022-08-21T12:38:12;4.38;;;3.75;;
47539;SDS011;33280;52.152;21.052;2022-08-21T12:44:10;4.53;;;2.80;;
47539;SDS011;33280;52.152;21.052;2022-08-21T12:46:46;4.68;;;2.70;;
47539;SDS011;33280;52.152;21.052;2022-08-21T12:49:36;3.92;;;2.97;;
47539;SDS011;33280;52.152;21.052;2022-08-21T12:55:05;3.75;;;2.83;;
47539;SDS011;33280;52.152;21.052;2022-08-21T12:57:35;5.25;;;2.80;;
47539;SDS011;33280;52.152;21.052;2022-08-21T13:00:04;4.60;;;2.85;;
47539;SDS011;33280;52.152;21.052;2022-08-21T13:02:36;3.75;;;2.88;;
47539;SDS011;33280;52.152;21.052;2022-08-21T13:05:06;3.70;;;2.88;;
47539;SDS011;33280;52.152;21.052;2022-08-21T13:07:42;4.40;;;2.80;;
47539;SDS011;33280;52.152;21.052;2022-08-21T13:10:19;4.20;;;2.95;;
47539;SDS011;33280;52.152;21.052;2022-08-21T13:12:50;4.88;;;3.20;;
47539;SDS011;33280;52.152;21.052;2022-08-21T13:15:25;4.05;;;3.10;;
47539;SDS011;33280;52.152;21.052;2022-08-21T13:17:58;5.38;;;3.17;;
47539;SDS011;33280;52.152;21.052;2022-08-21T13:20:32;5.65;;;3.20;;
47539;SDS011;33280;52.152;21.052;2022-08-21T13:23:01;3.95;;;3.10;;
47539;SDS011;33280;52.152;21.052;2022-08-21T13:25:30;7.03;;;3.30;;
47539;SDS011;33280;52.152;21.052;2022-08-21T13:28:06;3.45;;;3.15;;
47539;SDS011;33280;52.152;21.052;2022-08-21T13:30:38;3.80;;;3.15;;
47539;SDS011;33280;52.152;21.052;2022-08-21T13:33:09;6.80;;;3.60;;
47539;SDS011;33280;52.152;21.052;2022-08-21T13:35:50;3.35;;;2.80;;
47539;SDS011;33280;52.152;21.052;2022-08-21T13:38:24;3.92;;;3.00;;
47539;SDS011;33280;52.152;21.052;2022-08-21T13:40:55;4.40;;;3.58;;
47539;SDS011;33280;52.152;21.052;2022-08-21T13:43:26;5.38;;;3.17;;
47539;SDS011;33280;52.152;21.052;2022-08-21T13:45:56;4.20;;;3.22;;
47539;SDS011;33280;52.152;21.052;2022-08-21T13:48:26;7.95;;;3.50;;
47539;SDS011;33280;52.152;21.052;2022-08-21T13:50:56;5.43;;;3.08;;
47539;SDS011;33280;52.152;21.052;2022-08-21T13:53:35;6.22;;;3.00;;
47539;SDS011;33280;52.152;21.052;2022-08-21T13:59:00;4.85;;;3.33;;
47539;SDS011;33280;52.152;21.052;2022-08-21T14:01:32;5.63;;;3.20;;
47539;SDS011;33280;52.152;21.052;2022-08-21T14:04:04;4.93;;;3.30;;
47539;SDS011;33280;52.152;21.052;2022-08-21T14:06:38;3.92;;;3.45;;
47539;SDS011;33280;52.152;21.052;2022-08-21T14:09:09;8.88;;;3.20;;
47539;SDS011;33280;52.152;21.052;2022-08-21T14:11:38;4.22;;;3.25;;
47539;SDS011;33280;52.152;21.052;2022-08-21T14:17:02;4.03;;;3.38;;
47539;SDS011;33280;52.152;21.052;2022-08-21T14:19:51;4.30;;;2.90;;
47539;SDS011;33280;52.152;21.052;2022-08-21T14:25:05;4.13;;;3.35;;
47539;SDS011;33280;52.152;21.052;2022-08-21T14:27:42;3.92;;;3.13;;
47539;SDS011;33280;52.152;21.052;2022-08-21T14:30:26;8.27;;;3.30;;
47539;SDS011;33280;52.152;21.052;2022-08-21T14:32:56;4.38;;;3.22;;
47539;SDS011;33280;52.152;21.052;2022-08-21T14:35:23;5.97;;;3.30;;
47539;SDS011;33280;52.152;21.052;2022-08-21T14:37:51;5.38;;;2.92;;
47539;SDS011;33280;52.152;21.052;2022-08-21T14:40:19;4.57;;;3.15;;
47539;SDS011;33280;52.152;21.052;2022-08-21T14:42:47;3.20;;;2.90;;
47539;SDS011;33280;52.152;21.052;2022-08-21T14:45:20;4.20;;;3.13;;
47539;SDS011;33280;52.152;21.052;2022-08-21T14:47:55;6.38;;;3.40;;
47539;SDS011;33280;52.152;21.052;2022-08-21T14:50:23;5.38;;;3.20;;
47539;SDS011;33280;52.152;21.052;2022-08-21T14:52:53;3.80;;;2.88;;
47539;SDS011;33280;52.152;21.052;2022-08-21T14:55:21;5.03;;;3.20;;
47539;SDS011;33280;52.152;21.052;2022-08-21T14:57:48;4.18;;;2.80;;
47539;SDS011;33280;52.152;21.052;2022-08-21T15:00:19;5.40;;;3.03;;
47539;SDS011;33280;52.152;21.052;2022-08-21T15:03:01;4.63;;;2.92;;
47539;SDS011;33280;52.152;21.052;2022-08-21T15:05:28;5.20;;;3.00;;
47539;SDS011;33280;52.152;21.052;2022-08-21T15:07:59;3.20;;;2.78;;
47539;SDS011;33280;52.152;21.052;2022-08-21T15:10:26;3.85;;;2.92;;
47539;SDS011;33280;52.152;21.052;2022-08-21T15:12:53;4.43;;;2.83;;
47539;SDS011;33280;52.152;21.052;2022-08-21T15:15:20;5.55;;;3.10;;
47539;SDS011;33280;52.152;21.052;2022-08-21T15:17:47;3.58;;;3.03;;
47539;SDS011;33280;52.152;21.052;2022-08-21T15:20:14;7.93;;;2.92;;
47539;SDS011;33280;52.152;21.052;2022-08-21T15:22:41;6.38;;;3.25;;
47539;SDS011;33280;52.152;21.052;2022-08-21T15:25:13;3.92;;;3.13;;
47539;SDS011;33280;52.152;21.052;2022-08-21T15:27:40;7.68;;;3.30;;
47539;SDS011;33280;52.152;21.052;2022-08-21T15:30:07;3.33;;;2.70;;
47539;SDS011;33280;52.152;21.052;2022-08-21T15:32:35;3.50;;;2.50;;
47539;SDS011;33280;52.152;21.052;2022-08-21T15:35:02;4.57;;;2.70;;
47539;SDS011;33280;52.152;21.052;2022-08-21T15:37:29;3.90;;;2.60;;
47539;SDS011;33280;52.152;21.052;2022-08-21T15:39:56;5.95;;;2.80;;
47539;SDS011;33280;52.152;21.052;2022-08-21T15:42:24;4.07;;;2.90;;
47539;SDS011;33280;52.152;21.052;2022-08-21T15:44:55;3.08;;;2.75;;
47539;SDS011;33280;52.152;21.052;2022-08-21T15:47:29;3.03;;;2.70;;
47539;SDS011;33280;52.152;21.052;2022-08-21T15:50:00;5.03;;;3.25;;
47539;SDS011;33280;52.152;21.052;2022-08-21T15:52:27;3.83;;;2.70;;
47539;SDS011;33280;52.152;21.052;2022-08-21T15:54:54;4.93;;;3.10;;
47539;SDS011;33280;52.152;21.052;2022-08-21T15:57:22;7.22;;;3.20;;
47539;SDS011;33280;52.152;21.052;2022-08-21T15:59:52;4.20;;;3.78;;
47539;SDS011;33280;52.152;21.052;2022-08-21T16:02:27;4.32;;;3.42;;
47539;SDS011;33280;52.152;21.052;2022-08-21T16:04:57;5.18;;;3.30;;
47539;SDS011;33280;52.152;21.052;2022-08-21T16:07:25;5.10;;;3.75;;
47539;SDS011;33280;52.152;21.052;2022-08-21T16:09:52;7.25;;;3.95;;
47539;SDS011;33280;52.152;21.052;2022-08-21T16:12:21;5.45;;;3.90;;
47539;SDS011;33280;52.152;21.052;2022-08-21T16:14:51;6.18;;;4.00;;
47539;SDS011;33280;52.152;21.052;2022-08-21T16:17:20;6.63;;;3.85;;
47539;SDS011;33280;52.152;21.052;2022-08-21T16:19:55;6.15;;;4.40;;
47539;SDS011;33280;52.152;21.052;2022-08-21T16:22:23;4.43;;;3.80;;
47539;SDS011;33280;52.152;21.052;2022-08-21T16:25:03;7.40;;;4.40;;
47539;SDS011;33280;52.152;21.052;2022-08-21T16:27:33;5.15;;;4.45;;
47539;SDS011;33280;52.152;21.052;2022-08-21T16:30:05;5.32;;;4.32;;
47539;SDS011;33280;52.152;21.052;2022-08-21T16:32:32;7.03;;;4.38;;
47539;SDS011;33280;52.152;21.052;2022-08-21T16:35:00;5.50;;;4.38;;
47539;SDS011;33280;52.152;21.052;2022-08-21T16:37:29;11.18;;;4.63;;
47539;SDS011;33280;52.152;21.052;2022-08-21T16:39:57;6.70;;;4.57;;
47539;SDS011;33280;52.152;21.052;2022-08-21T16:42:25;6.65;;;4.25;;
47539;SDS011;33280;52.152;21.052;2022-08-21T16:44:52;6.35;;;4.28;;
47539;SDS011;33280;52.152;21.052;2022-08-21T16:47:20;9.25;;;4.90;;
47539;SDS011;33280;52.152;21.052;2022-08-21T16:49:52;12.10;;;4.90;;
47539;SDS011;33280;52.152;21.052;2022-08-21T16:52:19;5.28;;;4.65;;
47539;SDS011;33280;52.152;21.052;2022-08-21T16:54:46;9.75;;;4.93;;
47539;SDS011;33280;52.152;21.052;2022-08-21T16:57:13;6.90;;;4.80;;
47539;SDS011;33280;52.152;21.052;2022-08-21T16:59:43;7.43;;;4.70;;
47539;SDS011;33280;52.152;21.052;2022-08-21T17:02:23;6.90;;;4.43;;
47539;SDS011;33280;52.152;21.052;2022-08-21T17:05:00;5.75;;;4.60;;
47539;SDS011;33280;52.152;21.052;2022-08-21T17:07:28;8.88;;;5.18;;
47539;SDS011;33280;52.152;21.052;2022-08-21T17:10:02;5.30;;;4.50;;
47539;SDS011;33280;52.152;21.052;2022-08-21T17:12:30;6.45;;;4.97;;
47539;SDS011;33280;52.152;21.052;2022-08-21T17:15:00;5.55;;;4.57;;
47539;SDS011;33280;52.152;21.052;2022-08-21T17:17:32;7.00;;;4.80;;
47539;SDS011;33280;52.152;21.052;2022-08-21T17:20:00;5.18;;;4.20;;